Time;durP1;ratioP1;P1;durP2;ratioP2;P2;SDS_P1;SDS_P2;PMS_P1;PMS_P2;Temp;Humidity;BMP_temperature;BMP_pressure;BME280_temperature;BME280_humidity;BME280_pressure;Samples;Min_cycle;Max_cycle;Signal;HPM_P1;HPM_P2
2022/08/05 00:02:09;;;;;;;9.77;3.40;;;;;;;;;;5122573;28;20024;-78
2022/08/05 00:04:35;;;;;;;9.73;3.70;;;;;;;;;;5122041;28;20011;-77
2022/08/05 00:07:00;;;;;;;12.82;3.75;;;;;;;;;;5115803;28;20031;-78
2022/08/05 00:09:26;;;;;;;11.43;3.40;;;;;;;;;;5122030;28;20031;-77
2022/08/05 00:11:51;;;;;;;10.32;3.38;;;;;;;;;;5118992;28;20031;-78
2022/08/05 00:14:17;;;;;;;13.15;4.35;;;;;;;;;;5121293;28;20095;-78
2022/08/05 00:16:44;;;;;;;13.52;3.80;;;;;;;;;;5120790;28;20028;-78
2022/08/05 00:19:09;;;;;;;9.95;3.38;;;;;;;;;;5117281;28;20024;-78
2022/08/05 00:21:35;;;;;;;7.97;3.63;;;;;;;;;;5121035;28;20220;-78
2022/08/05 00:24:00;;;;;;;9.70;3.60;;;;;;;;;;5121838;28;20032;-77
2022/08/05 00:26:25;;;;;;;11.13;3.55;;;;;;;;;;5097389;28;20224;-79
2022/08/05 00:28:51;;;;;;;6.97;3.00;;;;;;;;;;5121936;28;20043;-78
2022/08/05 00:31:17;;;;;;;10.57;3.53;;;;;;;;;;5122046;28;20288;-79
2022/08/05 00:33:42;;;;;;;7.25;3.47;;;;;;;;;;5122334;28;20068;-78
2022/08/05 00:36:13;;;;;;;8.93;3.50;;;;;;;;;;5122182;28;20079;-79
2022/08/05 00:38:39;;;;;;;7.70;3.30;;;;;;;;;;5122238;28;20035;-79
2022/08/05 00:41:06;;;;;;;8.40;3.45;;;;;;;;;;5122188;28;20086;-78
2022/08/05 00:43:33;;;;;;;11.52;3.50;;;;;;;;;;5121404;28;20024;-78
2022/08/05 00:45:58;;;;;;;11.55;3.60;;;;;;;;;;5121897;28;20035;-79
2022/08/05 00:48:24;;;;;;;9.88;3.25;;;;;;;;;;5122468;28;20020;-78
2022/08/05 00:50:51;;;;;;;12.77;3.60;;;;;;;;;;5116705;28;20032;-78
2022/08/05 00:53:22;;;;;;;9.07;3.45;;;;;;;;;;5118707;28;20035;-78
2022/08/05 00:55:47;;;;;;;10.65;3.60;;;;;;;;;;5121214;28;20023;-79
2022/08/05 00:58:15;;;;;;;7.95;3.40;;;;;;;;;;5106883;28;20020;-79
2022/08/05 01:00:42;;;;;;;13.43;3.70;;;;;;;;;;5083266;28;20027;-79
2022/08/05 01:03:07;;;;;;;9.88;3.70;;;;;;;;;;5108806;28;20027;-79
2022/08/05 01:05:32;;;;;;;9.85;3.70;;;;;;;;;;5106808;28;20067;-79
2022/08/05 01:07:58;;;;;;;8.82;3.60;;;;;;;;;;5101116;28;20119;-79
2022/08/05 01:10:29;;;;;;;7.80;3.28;;;;;;;;;;5101423;28;20410;-78
2022/08/05 01:13:01;;;;;;;5.75;3.20;;;;;;;;;;5107695;28;20031;-79
2022/08/05 01:15:35;;;;;;;14.57;3.85;;;;;;;;;;5105314;28;20102;-79
2022/08/05 01:18:05;;;;;;;9.52;3.63;;;;;;;;;;5103557;28;20024;-78
2022/08/05 01:20:52;;;;;;;11.57;3.70;;;;;;;;;;5082127;28;20089;-79
2022/08/05 01:23:27;;;;;;;11.30;4.20;;;;;;;;;;5101232;28;20069;-78
2022/08/05 01:25:59;;;;;;;11.30;3.90;;;;;;;;;;5101219;28;20031;-78
2022/08/05 01:28:27;;;;;;;8.43;3.60;;;;;;;;;;5103617;28;20020;-78
2022/08/05 01:31:14;;;;;;;7.57;3.35;;;;;;;;;;5105172;28;20045;-78
2022/08/05 01:34:14;;;;;;;11.02;3.53;;;;;;;;;;5114581;28;20106;-78
2022/08/05 01:36:45;;;;;;;8.82;3.38;;;;;;;;;;5110853;28;20072;-78
2022/08/05 01:39:12;;;;;;;14.20;3.80;;;;;;;;;;5117357;28;20092;-78
2022/08/05 01:41:39;;;;;;;11.77;3.22;;;;;;;;;;5111527;28;20023;-78
2022/08/05 01:44:09;;;;;;;8.60;3.17;;;;;;;;;;5114174;28;20335;-78
2022/08/05 01:46:35;;;;;;;10.07;2.90;;;;;;;;;;5119461;28;20030;-77
2022/08/05 01:49:03;;;;;;;8.88;3.30;;;;;;;;;;5114608;28;20043;-77
2022/08/05 01:51:32;;;;;;;10.38;3.05;;;;;;;;;;5117133;28;20095;-78
2022/08/05 01:53:59;;;;;;;8.93;3.00;;;;;;;;;;5121014;28;20259;-78
2022/08/05 01:56:29;;;;;;;10.48;3.67;;;;;;;;;;5121479;28;20019;-79
2022/08/05 01:58:55;;;;;;;8.52;3.10;;;;;;;;;;5093960;28;20047;-78
2022/08/05 02:01:22;;;;;;;15.80;3.70;;;;;;;;;;5121326;28;20084;-80
2022/08/05 02:03:50;;;;;;;9.95;3.38;;;;;;;;;;5117253;28;20020;-80
2022/08/05 02:06:16;;;;;;;9.60;3.70;;;;;;;;;;5114434;28;20035;-80
2022/08/05 02:08:43;;;;;;;7.80;3.30;;;;;;;;;;5121287;28;20024;-80
2022/08/05 02:11:14;;;;;;;10.25;3.45;;;;;;;;;;5117695;28;20047;-80
2022/08/05 02:14:20;;;;;;;8.07;3.40;;;;;;;;;;5120278;28;20324;-80
2022/08/05 02:17:05;;;;;;;11.50;3.85;;;;;;;;;;5116185;28;20044;-79
2022/08/05 02:19:34;;;;;;;7.00;3.00;;;;;;;;;;5118961;28;20023;-80
2022/08/05 02:22:02;;;;;;;8.10;3.30;;;;;;;;;;5121107;28;20024;-79
2022/08/05 02:24:35;;;;;;;8.20;3.45;;;;;;;;;;5120669;28;20016;-79
2022/08/05 02:27:03;;;;;;;7.50;2.90;;;;;;;;;;5124432;28;20035;-79
2022/08/05 02:29:33;;;;;;;8.82;3.30;;;;;;;;;;5119618;28;20276;-79
2022/08/05 02:32:01;;;;;;;8.98;3.08;;;;;;;;;;5121228;28;20031;-79
2022/08/05 02:34:31;;;;;;;7.63;3.40;;;;;;;;;;5119401;28;20095;-81
2022/08/05 02:37:00;;;;;;;8.73;3.08;;;;;;;;;;5124314;28;20069;-80
2022/08/05 02:39:28;;;;;;;7.93;3.42;;;;;;;;;;5124262;28;20193;-79
2022/08/05 02:41:54;;;;;;;11.63;3.15;;;;;;;;;;5118802;28;20335;-80
2022/08/05 02:44:23;;;;;;;6.13;2.92;;;;;;;;;;5060865;28;20035;-80
2022/08/05 02:46:50;;;;;;;8.43;2.85;;;;;;;;;;5119282;28;20015;-80
2022/08/05 02:49:16;;;;;;;8.45;3.28;;;;;;;;;;5117365;28;20020;-79
2022/08/05 02:51:43;;;;;;;7.65;2.95;;;;;;;;;;5118115;28;20076;-80
2022/08/05 02:54:10;;;;;;;7.40;2.85;;;;;;;;;;5123167;28;20055;-80
2022/08/05 02:56:36;;;;;;;7.65;3.00;;;;;;;;;;5112847;28;20024;-80
2022/08/05 02:59:04;;;;;;;6.88;2.88;;;;;;;;;;5122981;28;20319;-80
2022/08/05 03:01:32;;;;;;;7.95;2.90;;;;;;;;;;5112159;28;20343;-80
2022/08/05 03:04:00;;;;;;;10.73;3.22;;;;;;;;;;5112655;28;20074;-80
2022/08/05 03:06:26;;;;;;;6.43;2.72;;;;;;;;;;5117566;28;20065;-81
2022/08/05 03:08:52;;;;;;;7.85;3.17;;;;;;;;;;5124423;28;20027;-81
2022/08/05 03:11:25;;;;;;;8.73;3.15;;;;;;;;;;5120944;28;20039;-80
2022/08/05 03:13:51;;;;;;;6.88;2.83;;;;;;;;;;5124272;28;20271;-80
2022/08/05 03:16:17;;;;;;;6.90;2.80;;;;;;;;;;5124350;28;20032;-80
2022/08/05 03:18:43;;;;;;;7.55;2.88;;;;;;;;;;5122200;28;20598;-81
2022/08/05 03:21:15;;;;;;;8.38;3.47;;;;;;;;;;5123951;28;20047;-81
2022/08/05 03:23:42;;;;;;;7.32;3.28;;;;;;;;;;5120780;28;20024;-81
2022/08/05 03:26:07;;;;;;;8.00;2.85;;;;;;;;;;5123857;28;20028;-81
2022/08/05 03:28:35;;;;;;;8.70;3.40;;;;;;;;;;5117218;28;20015;-80
2022/08/05 03:31:02;;;;;;;7.13;2.97;;;;;;;;;;5123852;28;20055;-81
2022/08/05 03:33:29;;;;;;;7.75;2.97;;;;;;;;;;5116660;28;20020;-81
2022/08/05 03:35:56;;;;;;;9.88;3.10;;;;;;;;;;5123543;28;20030;-81
2022/08/05 03:38:22;;;;;;;7.47;2.97;;;;;;;;;;5118612;28;20020;-80
2022/08/05 03:40:47;;;;;;;9.68;3.30;;;;;;;;;;5122794;28;20035;-81
2022/08/05 03:43:14;;;;;;;6.25;3.10;;;;;;;;;;5119909;28;20266;-81
2022/08/05 03:45:39;;;;;;;6.45;3.03;;;;;;;;;;5123837;28;20032;-81
2022/08/05 03:48:04;;;;;;;6.18;3.00;;;;;;;;;;5117573;28;20043;-81
2022/08/05 03:50:49;;;;;;;8.85;3.20;;;;;;;;;;5119726;28;20104;-81
2022/08/05 03:53:26;;;;;;;5.38;2.83;;;;;;;;;;5117100;28;20035;-80
2022/08/05 03:55:58;;;;;;;9.60;3.15;;;;;;;;;;5123309;28;20029;-80
2022/08/05 03:58:29;;;;;;;10.43;3.55;;;;;;;;;;5123025;28;20053;-81
2022/08/05 04:01:02;;;;;;;8.35;3.55;;;;;;;;;;5123179;28;20015;-81
2022/08/05 04:03:34;;;;;;;12.93;5.90;;;;;;;;;;5116522;28;20019;-81
2022/08/05 04:06:03;;;;;;;6.60;3.17;;;;;;;;;;5116026;28;20087;-80
2022/08/05 04:08:29;;;;;;;7.10;3.47;;;;;;;;;;5120445;28;20072;-82
2022/08/05 04:10:56;;;;;;;6.63;3.20;;;;;;;;;;5117514;28;20020;-82
2022/08/05 04:13:22;;;;;;;6.03;3.30;;;;;;;;;;5117059;28;20024;-81
2022/08/05 04:15:48;;;;;;;8.70;3.25;;;;;;;;;;5123436;28;20090;-80
2022/08/05 04:18:14;;;;;;;10.48;3.70;;;;;;;;;;5122942;28;20110;-82
2022/08/05 04:20:39;;;;;;;8.48;3.97;;;;;;;;;;5123069;28;20020;-80
2022/08/05 04:23:05;;;;;;;8.50;3.50;;;;;;;;;;5118750;28;20080;-81
2022/08/05 04:25:30;;;;;;;10.48;3.53;;;;;;;;;;5121845;28;20103;-81
2022/08/05 04:27:56;;;;;;;8.85;3.65;;;;;;;;;;5123429;28;20090;-82
2022/08/05 04:30:21;;;;;;;7.85;3.60;;;;;;;;;;5123011;28;20019;-81
2022/08/05 04:32:47;;;;;;;11.15;4.15;;;;;;;;;;5122542;28;20019;-82
2022/08/05 04:35:12;;;;;;;9.32;3.75;;;;;;;;;;5123067;28;20027;-81
2022/08/05 04:37:40;;;;;;;7.28;3.28;;;;;;;;;;5122984;28;20021;-81
2022/08/05 04:40:10;;;;;;;10.15;3.40;;;;;;;;;;5120588;28;20024;-82
2022/08/05 04:42:35;;;;;;;9.43;3.47;;;;;;;;;;5123325;28;20015;-81
2022/08/05 04:45:04;;;;;;;7.05;3.60;;;;;;;;;;5114209;28;20030;-82
2022/08/05 04:47:30;;;;;;;7.57;3.50;;;;;;;;;;5097029;28;20028;-82
2022/08/05 04:49:55;;;;;;;12.03;3.60;;;;;;;;;;5121417;28;20049;-83
2022/08/05 04:52:21;;;;;;;5.53;3.20;;;;;;;;;;5122837;28;20053;-81
2022/08/05 04:54:46;;;;;;;8.15;3.53;;;;;;;;;;5123069;28;20500;-82
2022/08/05 04:57:12;;;;;;;9.90;3.50;;;;;;;;;;5123035;28;20036;-82
2022/08/05 04:59:37;;;;;;;9.10;3.97;;;;;;;;;;5121124;28;20031;-82
2022/08/05 05:02:03;;;;;;;7.53;3.30;;;;;;;;;;5115634;28;20243;-81
2022/08/05 05:04:28;;;;;;;9.98;3.60;;;;;;;;;;5122694;28;20016;-81
2022/08/05 05:06:57;;;;;;;8.95;3.50;;;;;;;;;;5120002;28;20080;-81
2022/08/05 05:09:22;;;;;;;9.68;3.55;;;;;;;;;;5117493;28;20192;-82
2022/08/05 05:11:47;;;;;;;6.93;3.50;;;;;;;;;;5122283;28;20023;-82
2022/08/05 05:14:13;;;;;;;7.97;3.83;;;;;;;;;;5124451;28;20038;-82
2022/08/05 05:16:38;;;;;;;10.00;3.75;;;;;;;;;;5122400;28;20061;-82
2022/08/05 05:19:03;;;;;;;10.13;3.95;;;;;;;;;;5111767;28;20024;-82
2022/08/05 05:21:32;;;;;;;10.35;3.90;;;;;;;;;;5121877;28;20125;-83
2022/08/05 05:23:57;;;;;;;10.65;4.10;;;;;;;;;;5110098;28;20027;-82
2022/08/05 05:26:23;;;;;;;9.27;3.70;;;;;;;;;;5118354;28;20087;-81
2022/08/05 05:28:58;;;;;;;8.68;3.58;;;;;;;;;;5114897;28;20034;-81
2022/08/05 05:31:23;;;;;;;;;;;;;;;;;;5116939;28;20034;-81
2022/08/05 05:33:48;;;;;;;11.18;3.70;;;;;;;;;;5120311;28;19943;-81
2022/08/05 05:36:14;;;;;;;9.45;3.55;;;;;;;;;;5121606;28;20227;-81
2022/08/05 05:38:39;;;;;;;10.45;3.50;;;;;;;;;;5121310;28;20024;-81
2022/08/05 05:41:04;;;;;;;8.25;3.75;;;;;;;;;;5118993;28;20046;-81
2022/08/05 05:43:30;;;;;;;7.25;3.50;;;;;;;;;;5117171;28;20038;-82
2022/08/05 05:45:55;;;;;;;7.72;3.45;;;;;;;;;;5121641;28;20133;-81
2022/08/05 05:48:20;;;;;;;7.82;3.70;;;;;;;;;;5121232;28;20024;-80
2022/08/05 05:50:46;;;;;;;8.57;3.22;;;;;;;;;;5110784;28;20028;-81
2022/08/05 05:53:12;;;;;;;8.65;3.50;;;;;;;;;;5120469;28;20036;-82
2022/08/05 05:55:37;;;;;;;11.02;3.55;;;;;;;;;;5114368;28;20020;-81
2022/08/05 05:58:03;;;;;;;8.90;3.60;;;;;;;;;;5121677;28;20080;-80
2022/08/05 06:00:28;;;;;;;8.50;3.90;;;;;;;;;;5122472;28;20137;-80
2022/08/05 06:02:53;;;;;;;10.10;3.75;;;;;;;;;;5125232;28;20076;-81
2022/08/05 06:05:20;;;;;;;8.25;3.08;;;;;;;;;;5123819;28;20098;-81
2022/08/05 06:07:45;;;;;;;8.90;3.40;;;;;;;;;;5124036;28;20029;-80
2022/08/05 06:10:12;;;;;;;8.40;3.30;;;;;;;;;;5125856;28;20053;-81
2022/08/05 06:12:38;;;;;;;8.00;3.10;;;;;;;;;;5102241;28;20242;-81
2022/08/05 06:15:07;;;;;;;8.75;3.30;;;;;;;;;;5117532;28;20263;-82
2022/08/05 06:17:32;;;;;;;13.98;3.88;;;;;;;;;;5102430;28;20232;-82
2022/08/05 06:20:01;;;;;;;10.43;3.75;;;;;;;;;;5115446;28;20320;-82
2022/08/05 06:22:31;;;;;;;10.05;3.60;;;;;;;;;;5125440;28;20043;-81
2022/08/05 06:24:57;;;;;;;8.30;3.40;;;;;;;;;;5124510;28;20027;-82
2022/08/05 06:27:23;;;;;;;10.20;3.40;;;;;;;;;;5125243;28;20073;-84
2022/08/05 06:29:48;;;;;;;13.27;3.50;;;;;;;;;;5118371;28;20055;-82
2022/08/05 06:32:17;;;;;;;12.07;3.80;;;;;;;;;;5124369;28;20035;-82
2022/08/05 06:34:42;;;;;;;8.48;3.53;;;;;;;;;;5123504;28;20043;-82
2022/08/05 06:37:07;;;;;;;10.95;3.55;;;;;;;;;;5120118;28;20045;-82
2022/08/05 06:39:33;;;;;;;10.63;3.40;;;;;;;;;;5112167;28;20145;-83
2022/08/05 06:42:02;;;;;;;12.48;3.20;;;;;;;;;;5115884;28;20424;-82
2022/08/05 06:44:29;;;;;;;12.07;3.35;;;;;;;;;;5117635;28;20062;-82
2022/08/05 06:46:55;;;;;;;9.88;3.30;;;;;;;;;;5124353;28;20034;-82
2022/08/05 06:49:21;;;;;;;11.70;3.60;;;;;;;;;;5124154;28;20026;-82
2022/08/05 06:51:46;;;;;;;8.30;3.10;;;;;;;;;;5118533;28;20028;-82
2022/08/05 06:54:12;;;;;;;9.05;3.38;;;;;;;;;;5117316;28;20047;-82
2022/08/05 06:56:37;;;;;;;11.13;3.00;;;;;;;;;;5118216;28;20027;-82
2022/08/05 06:59:04;;;;;;;8.68;3.50;;;;;;;;;;5122715;28;20032;-81
2022/08/05 07:01:30;;;;;;;9.20;3.20;;;;;;;;;;5123940;28;20024;-82
2022/08/05 07:03:55;;;;;;;8.23;3.03;;;;;;;;;;5105156;28;20335;-82
2022/08/05 07:06:22;;;;;;;9.70;3.40;;;;;;;;;;5118022;28;20032;-82
2022/08/05 07:08:47;;;;;;;8.82;2.97;;;;;;;;;;5124016;28;20081;-81
2022/08/05 07:11:12;;;;;;;12.77;3.15;;;;;;;;;;5123453;28;20027;-82
2022/08/05 07:19:05;;;;;;;7.82;3.40;;;;;;;;;;5114067;28;20107;-82
2022/08/05 07:21:31;;;;;;;12.65;3.20;;;;;;;;;;5119969;28;20007;-83
2022/08/05 07:23:56;;;;;;;8.32;3.13;;;;;;;;;;5118285;28;20048;-83
2022/08/05 07:26:22;;;;;;;9.35;3.60;;;;;;;;;;5124284;28;20027;-83
2022/08/05 07:28:49;;;;;;;11.15;3.30;;;;;;;;;;5118581;28;20105;-83
2022/08/05 07:31:15;;;;;;;10.38;3.28;;;;;;;;;;5115057;28;20103;-82
2022/08/05 07:33:40;;;;;;;10.30;3.08;;;;;;;;;;5121831;28;20055;-82
2022/08/05 07:36:06;;;;;;;9.45;2.95;;;;;;;;;;5119392;28;20258;-83
2022/08/05 07:38:32;;;;;;;6.72;2.75;;;;;;;;;;5121303;28;20058;-83
2022/08/05 07:40:57;;;;;;;12.27;3.17;;;;;;;;;;5105565;28;20062;-82
2022/08/05 07:43:22;;;;;;;10.10;2.80;;;;;;;;;;5115523;28;20018;-82
2022/08/05 07:45:48;;;;;;;6.53;2.53;;;;;;;;;;5117999;28;20024;-82
2022/08/05 07:48:14;;;;;;;11.82;2.95;;;;;;;;;;5121938;28;20132;-83
2022/08/05 07:50:40;;;;;;;12.40;3.35;;;;;;;;;;5117213;28;20177;-81
2022/08/05 07:53:05;;;;;;;6.22;2.55;;;;;;;;;;5101118;28;20035;-82
2022/08/05 07:55:31;;;;;;;8.35;2.65;;;;;;;;;;5119891;28;20316;-83
2022/08/05 07:57:57;;;;;;;11.23;3.35;;;;;;;;;;5124354;28;20020;-82
2022/08/05 08:00:24;;;;;;;13.63;3.40;;;;;;;;;;5121355;28;20262;-83
2022/08/05 08:02:49;;;;;;;10.73;2.72;;;;;;;;;;5122994;28;20388;-83
2022/08/05 08:05:15;;;;;;;6.47;2.35;;;;;;;;;;5099791;28;20050;-83
2022/08/05 08:07:40;;;;;;;10.02;2.80;;;;;;;;;;5117602;28;20069;-83
2022/08/05 08:10:09;;;;;;;9.27;2.63;;;;;;;;;;5122875;28;20023;-82
2022/08/05 08:12:35;;;;;;;11.57;2.60;;;;;;;;;;5105514;28;20045;-83
2022/08/05 08:15:01;;;;;;;8.30;3.13;;;;;;;;;;5115767;28;20034;-82
2022/08/05 08:17:26;;;;;;;11.35;2.97;;;;;;;;;;5098989;28;20162;-82
2022/08/05 08:19:51;;;;;;;9.70;3.10;;;;;;;;;;5112617;28;20084;-82
2022/08/05 08:22:17;;;;;;;10.02;2.70;;;;;;;;;;5101441;28;20039;-82
2022/08/05 08:24:42;;;;;;;7.53;2.55;;;;;;;;;;5122407;28;20028;-82
2022/08/05 08:27:08;;;;;;;10.32;2.58;;;;;;;;;;5125629;28;20023;-82
2022/08/05 08:29:33;;;;;;;9.73;3.10;;;;;;;;;;5126129;28;20050;-81
2022/08/05 08:31:58;;;;;;;9.23;2.80;;;;;;;;;;5122963;28;20062;-82
2022/08/05 08:34:25;;;;;;;9.95;3.20;;;;;;;;;;5104563;28;20028;-81
2022/08/05 08:36:51;;;;;;;12.05;2.70;;;;;;;;;;5102290;28;20098;-81
2022/08/05 08:39:17;;;;;;;7.75;2.55;;;;;;;;;;5116185;28;20036;-81
2022/08/05 08:41:55;;;;;;;8.45;2.80;;;;;;;;;;5118592;28;20085;-82
2022/08/05 08:44:22;;;;;;;8.77;2.70;;;;;;;;;;5111420;28;20023;-82
2022/08/05 08:46:48;;;;;;;7.78;2.92;;;;;;;;;;5116832;28;20065;-81
2022/08/05 08:49:14;;;;;;;9.02;2.70;;;;;;;;;;5122049;28;20316;-81
2022/08/05 08:51:45;;;;;;;6.40;2.67;;;;;;;;;;5113546;28;20310;-81
2022/08/05 08:54:10;;;;;;;6.80;2.80;;;;;;;;;;5120561;28;20043;-81
2022/08/05 08:56:39;;;;;;;13.70;3.28;;;;;;;;;;5122287;28;20030;-81
2022/08/05 08:59:05;;;;;;;19.65;3.33;;;;;;;;;;5116601;28;20038;-80
2022/08/05 09:01:31;;;;;;;15.20;2.80;;;;;;;;;;5119289;28;20083;-81
2022/08/05 09:03:58;;;;;;;5.55;2.38;;;;;;;;;;5114632;28;20167;-80
2022/08/05 09:06:29;;;;;;;5.05;2.35;;;;;;;;;;5114386;28;20091;-79
2022/08/05 09:08:55;;;;;;;8.57;2.80;;;;;;;;;;5117931;28;20345;-83
2022/08/05 09:11:21;;;;;;;13.95;2.72;;;;;;;;;;5090018;28;20109;-81
2022/08/05 09:13:48;;;;;;;11.98;3.10;;;;;;;;;;5103494;28;20019;-79
2022/08/05 09:16:13;;;;;;;7.47;2.80;;;;;;;;;;5113965;28;20453;-80
2022/08/05 09:18:39;;;;;;;6.45;2.50;;;;;;;;;;5121895;28;20031;-80
2022/08/05 09:21:05;;;;;;;7.55;2.60;;;;;;;;;;5120996;28;20055;-80
2022/08/05 09:23:30;;;;;;;6.45;2.55;;;;;;;;;;5121456;28;20328;-79
2022/08/05 09:26:16;;;;;;;8.48;2.78;;;;;;;;;;5121002;28;20027;-81
2022/08/05 09:28:41;;;;;;;8.90;2.60;;;;;;;;;;5116918;28;20027;-82
2022/08/05 09:31:09;;;;;;;8.95;2.58;;;;;;;;;;5119592;28;20059;-80
2022/08/05 09:33:51;;;;;;;5.68;2.40;;;;;;;;;;5100388;28;20070;-78
2022/08/05 09:36:17;;;;;;;6.25;2.35;;;;;;;;;;5120795;28;20023;-82
2022/08/05 09:39:01;;;;;;;7.05;2.50;;;;;;;;;;5112082;28;20038;-78
2022/08/05 09:41:26;;;;;;;6.72;2.50;;;;;;;;;;5112153;28;20023;-80
2022/08/05 09:43:52;;;;;;;8.32;2.40;;;;;;;;;;5102913;28;20219;-78
2022/08/05 09:46:40;;;;;;;6.60;2.35;;;;;;;;;;5119328;28;20020;-80
2022/08/05 09:49:21;;;;;;;6.03;2.20;;;;;;;;;;5121229;28;20220;-79
2022/08/05 09:51:47;;;;;;;5.72;2.38;;;;;;;;;;5120945;28;20227;-80
2022/08/05 09:54:13;;;;;;;5.57;2.15;;;;;;;;;;5118321;28;20036;-78
2022/08/05 09:56:44;;;;;;;4.82;2.22;;;;;;;;;;5114225;28;20088;-79
2022/08/05 09:59:12;;;;;;;7.68;2.20;;;;;;;;;;5118767;28;20012;-79
2022/08/05 10:01:41;;;;;;;5.70;2.20;;;;;;;;;;5113078;28;20027;-80
2022/08/05 10:04:12;;;;;;;8.70;2.53;;;;;;;;;;5121248;28;20087;-79
2022/08/05 10:06:51;;;;;;;6.75;2.55;;;;;;;;;;5117654;28;20023;-79
2022/08/05 10:09:20;;;;;;;5.50;2.45;;;;;;;;;;5121028;28;20027;-79
2022/08/05 10:11:46;;;;;;;6.97;2.40;;;;;;;;;;5102438;28;20028;-78
2022/08/05 10:14:30;;;;;;;5.95;2.20;;;;;;;;;;5113003;28;20031;-79
2022/08/05 10:17:13;;;;;;;7.03;2.65;;;;;;;;;;5109321;28;20073;-79
2022/08/05 10:19:39;;;;;;;6.65;2.70;;;;;;;;;;5100070;28;20223;-79
2022/08/05 10:22:06;;;;;;;4.97;2.60;;;;;;;;;;5114338;28;20360;-83
2022/08/05 10:24:32;;;;;;;6.95;2.70;;;;;;;;;;5117990;28;20028;-81
2022/08/05 10:26:59;;;;;;;13.00;3.13;;;;;;;;;;5112106;28;20327;-82
2022/08/05 10:29:26;;;;;;;8.95;2.90;;;;;;;;;;5106828;28;20024;-81
2022/08/05 10:31:52;;;;;;;19.70;9.90;;;;;;;;;;5112096;28;20051;-79
2022/08/05 10:34:18;;;;;;;10.65;3.15;;;;;;;;;;5117796;28;20020;-81
2022/08/05 10:36:44;;;;;;;10.82;3.78;;;;;;;;;;5113928;28;20051;-79
2022/08/05 10:39:18;;;;;;;8.60;3.35;;;;;;;;;;5119639;28;20031;-79
2022/08/05 10:42:10;;;;;;;9.23;3.30;;;;;;;;;;5119166;28;20023;-79
2022/08/05 10:44:37;;;;;;;7.70;3.35;;;;;;;;;;5099989;28;20041;-81
2022/08/05 10:47:14;;;;;;;9.63;3.53;;;;;;;;;;5119111;28;20026;-79
2022/08/05 10:50:13;;;;;;;11.38;3.65;;;;;;;;;;5120244;28;20020;-80
2022/08/05 10:52:42;;;;;;;10.13;3.67;;;;;;;;;;5105691;28;20056;-81
2022/08/05 10:55:12;;;;;;;8.85;3.70;;;;;;;;;;5115777;28;20324;-80
2022/08/05 10:57:40;;;;;;;7.68;3.50;;;;;;;;;;5119452;28;20035;-80
2022/08/05 11:00:23;;;;;;;9.75;4.10;;;;;;;;;;5123349;28;20023;-80
2022/08/05 11:03:06;;;;;;;8.05;3.80;;;;;;;;;;5117003;28;20043;-79
2022/08/05 11:05:33;;;;;;;10.02;3.83;;;;;;;;;;5123527;28;20031;-79
2022/08/05 11:08:03;;;;;;;9.40;4.10;;;;;;;;;;5123611;28;20027;-79
2022/08/05 11:10:31;;;;;;;7.88;3.63;;;;;;;;;;5123009;28;20054;-78
2022/08/05 11:12:57;;;;;;;10.00;4.00;;;;;;;;;;5113653;28;20042;-78
2022/08/05 11:15:38;;;;;;;10.52;3.70;;;;;;;;;;5121297;28;20019;-78
2022/08/05 11:18:27;;;;;;;8.73;3.70;;;;;;;;;;5120973;28;20046;-78
2022/08/05 11:20:53;;;;;;;7.05;3.22;;;;;;;;;;5112315;28;20022;-78
2022/08/05 11:23:31;;;;;;;7.30;3.35;;;;;;;;;;5100402;28;20019;-77
2022/08/05 11:26:01;;;;;;;6.35;3.40;;;;;;;;;;5123723;28;20087;-77
2022/08/05 11:28:33;;;;;;;9.02;3.53;;;;;;;;;;5121306;28;20304;-78
2022/08/05 11:31:01;;;;;;;7.95;3.70;;;;;;;;;;5117783;28;20096;-77
2022/08/05 11:33:47;;;;;;;8.90;2.88;;;;;;;;;;5123428;28;20046;-78
2022/08/05 11:36:15;;;;;;;9.38;3.22;;;;;;;;;;5115051;28;20053;-77
2022/08/05 11:38:41;;;;;;;10.80;3.53;;;;;;;;;;5121353;28;20017;-77
2022/08/05 11:41:16;;;;;;;10.93;4.55;;;;;;;;;;5116715;28;20023;-76
2022/08/05 11:43:59;;;;;;;9.40;3.40;;;;;;;;;;5115967;28;20027;-75
2022/08/05 11:46:32;;;;;;;14.18;4.90;;;;;;;;;;5112362;28;20028;-76
2022/08/05 11:48:59;;;;;;;7.85;3.20;;;;;;;;;;5122627;28;20133;-76
2022/08/05 11:51:26;;;;;;;7.55;3.22;;;;;;;;;;5117607;28;20031;-78
2022/08/05 11:53:52;;;;;;;7.32;2.90;;;;;;;;;;5118320;28;20046;-79
2022/08/05 11:56:18;;;;;;;12.02;4.50;;;;;;;;;;5118720;28;20023;-76
2022/08/05 11:58:45;;;;;;;6.50;2.70;;;;;;;;;;5122728;28;20039;-76
2022/08/05 12:01:19;;;;;;;6.15;2.45;;;;;;;;;;5111395;28;20315;-76
2022/08/05 12:03:50;;;;;;;7.47;2.80;;;;;;;;;;5122105;28;20482;-78
2022/08/05 12:06:18;;;;;;;6.90;2.40;;;;;;;;;;5122973;28;20392;-78
2022/08/05 12:08:46;;;;;;;8.23;2.97;;;;;;;;;;5120724;28;20335;-79
2022/08/05 12:11:23;;;;;;;5.75;2.50;;;;;;;;;;5118325;28;20042;-78
2022/08/05 12:14:04;;;;;;;5.25;2.60;;;;;;;;;;5118372;28;20083;-75
2022/08/05 12:16:36;;;;;;;7.72;2.45;;;;;;;;;;5122852;28;20019;-77
2022/08/05 12:19:04;;;;;;;9.50;2.60;;;;;;;;;;5122167;28;20040;-76
2022/08/05 12:21:31;;;;;;;7.88;2.80;;;;;;;;;;5122713;28;20031;-81
2022/08/05 12:24:09;;;;;;;9.82;2.90;;;;;;;;;;5119739;28;20337;-76
2022/08/05 12:26:40;;;;;;;6.03;2.78;;;;;;;;;;5117236;28;20386;-76
2022/08/05 12:29:09;;;;;;;28.30;15.15;;;;;;;;;;5122257;28;20020;-84
2022/08/05 12:31:34;;;;;;;9.27;3.25;;;;;;;;;;5122587;28;20027;-81
2022/08/05 12:34:01;;;;;;;6.88;2.72;;;;;;;;;;5122115;28;20069;-77
2022/08/05 12:36:27;;;;;;;11.02;6.20;;;;;;;;;;5122562;28;20051;-76
2022/08/05 12:38:53;;;;;;;4.85;2.90;;;;;;;;;;5119635;28;20030;-77
2022/08/05 12:41:19;;;;;;;9.00;3.10;;;;;;;;;;5121776;28;20055;-76
2022/08/05 12:43:58;;;;;;;11.00;3.25;;;;;;;;;;5122193;28;20028;-78
2022/08/05 12:46:25;;;;;;;8.35;3.60;;;;;;;;;;5112839;28;20034;-76
2022/08/05 12:49:08;;;;;;;7.63;2.80;;;;;;;;;;5119230;28;20124;-78
2022/08/05 12:51:44;;;;;;;7.43;2.97;;;;;;;;;;5119415;28;20031;-77
2022/08/05 12:54:16;;;;;;;6.00;2.63;;;;;;;;;;5121997;28;20046;-77
2022/08/05 12:56:46;;;;;;;6.80;2.70;;;;;;;;;;5121658;28;20043;-78
2022/08/05 12:59:20;;;;;;;6.60;2.53;;;;;;;;;;5121816;28;20350;-78
2022/08/05 13:01:58;;;;;;;6.07;2.55;;;;;;;;;;5115626;28;20046;-78
2022/08/05 13:04:32;;;;;;;6.65;2.60;;;;;;;;;;5120102;28;20320;-78
2022/08/05 13:07:11;;;;;;;7.00;2.53;;;;;;;;;;5115460;28;20050;-77
2022/08/05 13:09:44;;;;;;;8.52;2.80;;;;;;;;;;5110097;28;20031;-78
2022/08/05 13:12:12;;;;;;;5.43;2.70;;;;;;;;;;5101544;28;20335;-77
2022/08/05 13:14:39;;;;;;;6.15;2.63;;;;;;;;;;5085344;28;20020;-77
2022/08/05 13:17:09;;;;;;;5.82;2.72;;;;;;;;;;5101107;28;20016;-76
2022/08/05 13:19:35;;;;;;;10.20;5.15;;;;;;;;;;5100931;28;20075;-76
2022/08/05 13:22:01;;;;;;;19.38;9.90;;;;;;;;;;5105829;28;20024;-75
2022/08/05 13:24:26;;;;;;;8.00;4.05;;;;;;;;;;5121222;28;20207;-77
2022/08/05 13:26:51;;;;;;;5.07;2.33;;;;;;;;;;5114001;28;20026;-76
2022/08/05 13:29:20;;;;;;;8.45;2.53;;;;;;;;;;5121371;28;20023;-75
2022/08/05 13:31:46;;;;;;;6.60;2.40;;;;;;;;;;5121457;28;20043;-76
2022/08/05 13:34:11;;;;;;;6.30;2.33;;;;;;;;;;5112874;28;20015;-78
2022/08/05 13:36:37;;;;;;;6.00;2.50;;;;;;;;;;5104662;28;20024;-76
2022/08/05 13:39:04;;;;;;;5.90;2.22;;;;;;;;;;5103280;28;20097;-75
2022/08/05 13:41:29;;;;;;;6.47;2.40;;;;;;;;;;5100774;28;20304;-78
2022/08/05 13:43:55;;;;;;;8.35;2.67;;;;;;;;;;5104859;28;20035;-76
2022/08/05 13:46:22;;;;;;;6.20;2.20;;;;;;;;;;5101127;28;20020;-76
2022/08/05 13:48:48;;;;;;;4.25;2.00;;;;;;;;;;5104614;28;20087;-77
2022/08/05 13:51:13;;;;;;;6.30;2.20;;;;;;;;;;5102259;28;20213;-78
2022/08/05 13:53:40;;;;;;;7.38;2.30;;;;;;;;;;5102946;28;20036;-76
2022/08/05 13:56:05;;;;;;;5.60;2.00;;;;;;;;;;5070208;28;20024;-76
2022/08/05 13:58:31;;;;;;;7.38;2.20;;;;;;;;;;5093648;28;20265;-75
2022/08/05 14:00:57;;;;;;;6.32;2.00;;;;;;;;;;5107025;28;20110;-76
2022/08/05 14:03:22;;;;;;;4.47;2.10;;;;;;;;;;5101314;28;20012;-75
2022/08/05 14:05:48;;;;;;;4.60;2.10;;;;;;;;;;5084043;28;20279;-78
2022/08/05 14:08:14;;;;;;;4.25;2.10;;;;;;;;;;5100543;28;20019;-76
2022/08/05 14:10:39;;;;;;;6.65;2.20;;;;;;;;;;5099493;28;20251;-81
2022/08/05 14:13:06;;;;;;;4.75;2.20;;;;;;;;;;5082379;28;20078;-78
2022/08/05 14:15:32;;;;;;;7.95;2.10;;;;;;;;;;5100647;28;20036;-76
2022/08/05 14:17:58;;;;;;;6.75;2.30;;;;;;;;;;5100599;28;20048;-78
2022/08/05 14:20:23;;;;;;;4.43;2.00;;;;;;;;;;5102780;28;20354;-77
2022/08/05 14:22:49;;;;;;;10.35;2.38;;;;;;;;;;5090665;28;20024;-78
2022/08/05 14:25:14;;;;;;;4.50;2.33;;;;;;;;;;5107550;28;20031;-80
2022/08/05 14:27:40;;;;;;;5.85;2.50;;;;;;;;;;5104498;28;20267;-77
2022/08/05 14:30:06;;;;;;;4.38;2.00;;;;;;;;;;5104391;28;20349;-76
2022/08/05 14:32:32;;;;;;;4.93;2.08;;;;;;;;;;5104053;28;20257;-78
2022/08/05 14:34:58;;;;;;;6.57;2.10;;;;;;;;;;5107430;28;20098;-79
2022/08/05 14:37:24;;;;;;;6.25;2.42;;;;;;;;;;5104583;28;20061;-76
2022/08/05 14:39:49;;;;;;;5.28;2.00;;;;;;;;;;5089153;28;20055;-76
2022/08/05 14:42:14;;;;;;;5.05;2.08;;;;;;;;;;5104202;28;20028;-76
2022/08/05 14:44:40;;;;;;;7.60;2.00;;;;;;;;;;5104204;28;20718;-75
2022/08/05 14:47:05;;;;;;;5.63;1.85;;;;;;;;;;5106659;28;20091;-78
2022/08/05 14:49:31;;;;;;;10.15;2.03;;;;;;;;;;5106950;28;20019;-76
2022/08/05 14:51:56;;;;;;;5.85;1.90;;;;;;;;;;5104176;28;20023;-76
2022/08/05 14:54:22;;;;;;;6.75;2.00;;;;;;;;;;5117906;28;20107;-77